Time;durP1;ratioP1;P1;durP2;ratioP2;P2;SDS_P1;SDS_P2;PMS_P1;PMS_P2;Temp;Humidity;BMP_temperature;BMP_pressure;BME280_temperature;BME280_humidity;BME280_pressure;Samples;Min_cycle;Max_cycle;Signal;HPM_P1;HPM_P2
2021/06/19 00:02:21;;;;;;;7.88;7.07;;;;;;;;;;4978133;28;20047;-86
2021/06/19 00:04:49;;;;;;;9.00;7.68;;;;;;;;;;4980738;28;20046;-87
2021/06/19 00:07:16;;;;;;;8.20;7.10;;;;;;;;;;4996619;28;20487;-87
2021/06/19 00:09:42;;;;;;;7.68;6.88;;;;;;;;;;4993719;28;20051;-86
2021/06/19 00:12:10;;;;;;;9.60;7.30;;;;;;;;;;4989440;28;20100;-85
2021/06/19 00:14:37;;;;;;;9.30;7.15;;;;;;;;;;4962752;28;20054;-86
2021/06/19 00:17:04;;;;;;;9.00;6.97;;;;;;;;;;4995344;28;20427;-86
2021/06/19 00:19:30;;;;;;;7.63;6.82;;;;;;;;;;4966858;28;20046;-86
2021/06/19 00:21:58;;;;;;;9.82;7.40;;;;;;;;;;4973857;28;20078;-85
2021/06/19 00:24:25;;;;;;;8.95;6.70;;;;;;;;;;4985190;28;20488;-86
2021/06/19 00:26:52;;;;;;;8.40;7.60;;;;;;;;;;4973953;28;20050;-87
2021/06/19 00:29:19;;;;;;;7.35;6.63;;;;;;;;;;4986537;28;20046;-85
2021/06/19 00:31:46;;;;;;;9.18;7.75;;;;;;;;;;4984737;28;20053;-86
2021/06/19 00:34:13;;;;;;;11.40;7.70;;;;;;;;;;4973401;28;20053;-86
2021/06/19 00:36:40;;;;;;;8.73;6.68;;;;;;;;;;4984942;28;20053;-86
2021/06/19 00:39:09;;;;;;;7.60;6.80;;;;;;;;;;4978206;28;20419;-87
2021/06/19 00:41:36;;;;;;;8.25;7.43;;;;;;;;;;4976649;28;20056;-86
2021/06/19 00:44:03;;;;;;;7.95;7.20;;;;;;;;;;4990775;28;20054;-86
2021/06/19 00:46:30;;;;;;;7.65;6.93;;;;;;;;;;4975407;28;20043;-86
2021/06/19 00:48:57;;;;;;;9.52;7.70;;;;;;;;;;4988404;28;20046;-88
2021/06/19 00:51:23;;;;;;;9.73;7.40;;;;;;;;;;4994992;28;20046;-86
2021/06/19 00:53:50;;;;;;;7.47;6.78;;;;;;;;;;4986988;28;20046;-86
2021/06/19 00:56:19;;;;;;;7.40;6.60;;;;;;;;;;4989162;28;20061;-86
2021/06/19 00:58:46;;;;;;;7.82;7.03;;;;;;;;;;4995023;28;20058;-86
2021/06/19 01:01:13;;;;;;;8.52;7.63;;;;;;;;;;4968835;28;20501;-86
2021/06/19 01:03:40;;;;;;;8.20;7.40;;;;;;;;;;4984864;28;20109;-86
2021/06/19 01:06:07;;;;;;;8.20;7.40;;;;;;;;;;4990759;28;20895;-85
2021/06/19 01:08:33;;;;;;;8.13;7.32;;;;;;;;;;4978760;28;20057;-86
2021/06/19 01:11:00;;;;;;;8.18;6.95;;;;;;;;;;4991432;28;20500;-86
2021/06/19 01:13:28;;;;;;;7.78;6.93;;;;;;;;;;4992004;28;20050;-86
2021/06/19 01:15:55;;;;;;;7.85;7.05;;;;;;;;;;4986332;28;20047;-85
2021/06/19 01:18:21;;;;;;;12.98;9.27;;;;;;;;;;4991150;28;20038;-86
2021/06/19 01:20:48;;;;;;;12.15;7.85;;;;;;;;;;4989224;28;20053;-86
2021/06/19 01:23:15;;;;;;;11.73;7.38;;;;;;;;;;4989499;28;20097;-86
2021/06/19 01:25:43;;;;;;;8.65;7.78;;;;;;;;;;4975442;28;20138;-87
2021/06/19 01:28:11;;;;;;;8.52;7.50;;;;;;;;;;4990049;28;20038;-86
2021/06/19 01:30:39;;;;;;;8.38;7.47;;;;;;;;;;4976141;28;20105;-87
2021/06/19 01:33:08;;;;;;;8.05;7.25;;;;;;;;;;4977118;28;20042;-86
2021/06/19 01:35:35;;;;;;;8.55;7.63;;;;;;;;;;4978920;28;20054;-86
2021/06/19 01:38:01;;;;;;;8.48;7.57;;;;;;;;;;4977704;28;20046;-87
2021/06/19 01:40:29;;;;;;;9.35;7.70;;;;;;;;;;4989932;28;20093;-87
2021/06/19 01:42:59;;;;;;;8.23;7.43;;;;;;;;;;4985877;28;20047;-86
2021/06/19 01:45:28;;;;;;;9.88;7.82;;;;;;;;;;4989012;28;20042;-86
2021/06/19 01:47:55;;;;;;;7.80;6.82;;;;;;;;;;4972174;28;20050;-86
2021/06/19 01:50:23;;;;;;;8.23;6.95;;;;;;;;;;4990639;28;20045;-86
2021/06/19 01:52:50;;;;;;;8.25;6.88;;;;;;;;;;4989689;28;20058;-87
2021/06/19 01:55:17;;;;;;;8.32;7.43;;;;;;;;;;4974759;28;20046;-86
2021/06/19 01:57:45;;;;;;;8.07;7.28;;;;;;;;;;4985573;28;20047;-87
2021/06/19 02:00:18;;;;;;;8.70;7.55;;;;;;;;;;4991707;28;20069;-86
2021/06/19 02:02:45;;;;;;;9.18;7.82;;;;;;;;;;4987384;28;20058;-86
2021/06/19 02:05:13;;;;;;;11.38;8.70;;;;;;;;;;4988248;28;20061;-86
2021/06/19 02:07:51;;;;;;;11.57;7.57;;;;;;;;;;4967897;28;20125;-86
2021/06/19 02:10:20;;;;;;;8.45;7.60;;;;;;;;;;4992031;28;20492;-86
2021/06/19 02:12:47;;;;;;;7.65;6.95;;;;;;;;;;4992287;28;20058;-86
2021/06/19 02:15:16;;;;;;;9.43;7.88;;;;;;;;;;4991971;28;20046;-86
2021/06/19 02:17:42;;;;;;;8.70;7.25;;;;;;;;;;4970481;28;20061;-86
2021/06/19 02:20:11;;;;;;;11.77;7.70;;;;;;;;;;4981849;28;20044;-88
2021/06/19 02:22:38;;;;;;;8.70;7.80;;;;;;;;;;4985311;28;20050;-85
2021/06/19 02:25:06;;;;;;;10.30;7.72;;;;;;;;;;4992256;28;20057;-84
2021/06/19 02:27:33;;;;;;;9.40;8.23;;;;;;;;;;4990594;28;20054;-87
2021/06/19 02:30:00;;;;;;;8.77;7.78;;;;;;;;;;4991557;28;20054;-87
2021/06/19 02:32:28;;;;;;;10.27;8.52;;;;;;;;;;4977594;28;20053;-87
2021/06/19 02:34:55;;;;;;;11.05;8.32;;;;;;;;;;4974945;28;20046;-86
2021/06/19 02:37:22;;;;;;;9.18;7.70;;;;;;;;;;4983776;28;20392;-85
2021/06/19 02:39:48;;;;;;;9.23;8.13;;;;;;;;;;4985684;28;20414;-84
2021/06/19 02:42:15;;;;;;;9.63;8.63;;;;;;;;;;4987412;28;20050;-83
2021/06/19 02:44:41;;;;;;;9.05;8.13;;;;;;;;;;4974171;28;20117;-85
2021/06/19 02:47:08;;;;;;;14.13;8.98;;;;;;;;;;4974246;28;20499;-85
2021/06/19 02:49:36;;;;;;;9.52;7.70;;;;;;;;;;4989964;28;20058;-87
2021/06/19 02:52:04;;;;;;;9.95;8.07;;;;;;;;;;4987604;28;20053;-85
2021/06/19 02:54:31;;;;;;;9.38;8.45;;;;;;;;;;4988051;28;20146;-87
2021/06/19 02:56:58;;;;;;;10.73;8.30;;;;;;;;;;4973167;28;20051;-87
2021/06/19 02:59:24;;;;;;;13.48;8.38;;;;;;;;;;4986180;28;20049;-86
2021/06/19 03:01:51;;;;;;;8.40;7.47;;;;;;;;;;4968427;28;20607;-85
2021/06/19 03:04:20;;;;;;;8.13;7.32;;;;;;;;;;4976106;28;20039;-86
2021/06/19 03:06:48;;;;;;;9.90;7.45;;;;;;;;;;4971531;28;20046;-86
2021/06/19 03:09:15;;;;;;;8.20;7.40;;;;;;;;;;4984047;28;20057;-86
2021/06/19 03:11:41;;;;;;;10.38;8.35;;;;;;;;;;4970018;28;20062;-86
2021/06/19 03:14:08;;;;;;;9.80;7.95;;;;;;;;;;4975369;28;20046;-86
2021/06/19 03:16:35;;;;;;;10.43;7.88;;;;;;;;;;4985207;28;20058;-86
2021/06/19 03:19:02;;;;;;;9.98;8.05;;;;;;;;;;4988604;28;20050;-86
2021/06/19 03:21:29;;;;;;;11.00;7.50;;;;;;;;;;4992553;28;20117;-86
2021/06/19 03:23:57;;;;;;;10.55;8.70;;;;;;;;;;4988651;28;20119;-86
2021/06/19 03:26:24;;;;;;;10.63;8.82;;;;;;;;;;4985045;28;20262;-86
2021/06/19 03:28:51;;;;;;;9.63;7.80;;;;;;;;;;4975077;28;20046;-87
2021/06/19 03:31:18;;;;;;;16.20;8.25;;;;;;;;;;4973807;28;20500;-86
2021/06/19 03:33:45;;;;;;;12.98;8.30;;;;;;;;;;4969198;28;20074;-86
2021/06/19 03:36:12;;;;;;;11.25;8.23;;;;;;;;;;4986313;28;20038;-87
2021/06/19 03:38:38;;;;;;;9.30;7.78;;;;;;;;;;4983311;28;20058;-84
2021/06/19 03:41:06;;;;;;;12.77;9.00;;;;;;;;;;4992584;28;20046;-85
2021/06/19 03:43:33;;;;;;;12.05;9.68;;;;;;;;;;4985742;28;20050;-86
2021/06/19 03:46:00;;;;;;;12.48;7.95;;;;;;;;;;4981090;28;20057;-86
2021/06/19 03:48:26;;;;;;;11.85;8.57;;;;;;;;;;4987489;28;20048;-84
2021/06/19 03:50:53;;;;;;;10.00;7.25;;;;;;;;;;4988955;28;20560;-85
2021/06/19 03:53:20;;;;;;;9.57;8.00;;;;;;;;;;4984251;28;20046;-86
2021/06/19 03:55:46;;;;;;;9.18;7.30;;;;;;;;;;4981679;28;20051;-87
2021/06/19 03:58:16;;;;;;;13.75;8.93;;;;;;;;;;4975635;28;20491;-86
2021/06/19 04:00:43;;;;;;;8.85;7.57;;;;;;;;;;4985863;28;20486;-86
2021/06/19 04:03:10;;;;;;;8.32;6.97;;;;;;;;;;4971419;28;20058;-86
2021/06/19 04:05:37;;;;;;;14.45;7.30;;;;;;;;;;4986908;28;20046;-85
2021/06/19 04:08:04;;;;;;;38.70;10.68;;;;;;;;;;4987374;28;20478;-86
2021/06/19 04:10:32;;;;;;;9.20;7.97;;;;;;;;;;4973797;28;20038;-85
2021/06/19 04:12:59;;;;;;;10.68;7.93;;;;;;;;;;4989825;28;20130;-85
2021/06/19 04:15:29;;;;;;;9.52;7.88;;;;;;;;;;4987116;28;20042;-86
2021/06/19 04:17:55;;;;;;;8.50;7.18;;;;;;;;;;4986318;28;20548;-87
2021/06/19 04:20:22;;;;;;;11.07;8.45;;;;;;;;;;4991896;28;20403;-86
2021/06/19 04:22:50;;;;;;;12.52;7.78;;;;;;;;;;4986503;28;20522;-85
2021/06/19 04:25:19;;;;;;;9.75;7.32;;;;;;;;;;4992275;28;20135;-85
2021/06/19 04:27:49;;;;;;;12.68;8.70;;;;;;;;;;4989071;28;20054;-85
2021/06/19 04:30:17;;;;;;;7.38;6.57;;;;;;;;;;4985613;28;20516;-85
2021/06/19 04:32:45;;;;;;;8.90;7.22;;;;;;;;;;4984771;28;20047;-85
2021/06/19 04:35:14;;;;;;;10.00;8.05;;;;;;;;;;4988701;28;20491;-86
2021/06/19 04:37:41;;;;;;;12.65;8.48;;;;;;;;;;4992237;28;20109;-85
2021/06/19 04:40:13;;;;;;;10.05;8.23;;;;;;;;;;4989746;28;20042;-85
2021/06/19 04:42:41;;;;;;;13.75;9.13;;;;;;;;;;4992573;28;20050;-85
2021/06/19 04:45:10;;;;;;;10.07;9.02;;;;;;;;;;4989193;28;20065;-85
2021/06/19 04:47:38;;;;;;;8.95;8.05;;;;;;;;;;4989232;28;20525;-85
2021/06/19 04:50:09;;;;;;;11.07;8.23;;;;;;;;;;4988928;28;20046;-85
2021/06/19 04:52:39;;;;;;;9.75;7.75;;;;;;;;;;4985910;28;20055;-85
2021/06/19 04:55:06;;;;;;;12.75;8.60;;;;;;;;;;4992736;28;20047;-85
2021/06/19 04:57:33;;;;;;;10.50;8.05;;;;;;;;;;4990779;28;20058;-85
2021/06/19 05:00:00;;;;;;;9.77;8.45;;;;;;;;;;4988651;28;20053;-85
2021/06/19 05:02:26;;;;;;;9.20;8.30;;;;;;;;;;4991382;28;20038;-84
2021/06/19 05:04:53;;;;;;;10.52;9.40;;;;;;;;;;4989391;28;20420;-84
2021/06/19 05:07:21;;;;;;;13.13;8.55;;;;;;;;;;4990683;28;20046;-85
2021/06/19 05:09:48;;;;;;;12.98;8.45;;;;;;;;;;4988647;28;20413;-84
2021/06/19 05:12:14;;;;;;;14.82;8.98;;;;;;;;;;4991605;28;20042;-84
2021/06/19 05:14:41;;;;;;;12.52;9.45;;;;;;;;;;4991434;28;20050;-84
2021/06/19 05:17:08;;;;;;;19.10;9.05;;;;;;;;;;4990215;28;20414;-84
2021/06/19 05:19:34;;;;;;;13.63;9.45;;;;;;;;;;4965409;28;20053;-83
2021/06/19 05:22:01;;;;;;;12.63;9.52;;;;;;;;;;4978269;28;20043;-83
2021/06/19 05:24:29;;;;;;;11.52;9.30;;;;;;;;;;4992048;28;20057;-83
2021/06/19 05:26:56;;;;;;;13.20;9.02;;;;;;;;;;4991734;28;20049;-83
2021/06/19 05:29:23;;;;;;;11.50;9.23;;;;;;;;;;4988749;28;20061;-84
2021/06/19 05:31:49;;;;;;;10.50;9.35;;;;;;;;;;4986423;28;20054;-84
2021/06/19 05:34:16;;;;;;;10.52;9.43;;;;;;;;;;4986863;28;20047;-83
2021/06/19 05:36:43;;;;;;;12.18;9.80;;;;;;;;;;4990067;28;20050;-82
2021/06/19 05:39:09;;;;;;;14.52;12.80;;;;;;;;;;4982804;28;20039;-82
2021/06/19 05:41:38;;;;;;;17.15;12.25;;;;;;;;;;4991875;28;20065;-84
2021/06/19 05:44:08;;;;;;;12.65;11.05;;;;;;;;;;4992129;28;20410;-83
2021/06/19 05:46:35;;;;;;;14.60;10.48;;;;;;;;;;4988240;28;20471;-82
2021/06/19 05:49:01;;;;;;;13.63;11.18;;;;;;;;;;4974699;28;20423;-83
2021/06/19 05:51:28;;;;;;;11.57;10.32;;;;;;;;;;4986081;28;20047;-84
2021/06/19 05:53:55;;;;;;;12.70;10.30;;;;;;;;;;4992725;28;20055;-83
2021/06/19 05:56:22;;;;;;;13.30;10.38;;;;;;;;;;4990386;28;20483;-85
2021/06/19 05:58:50;;;;;;;12.30;9.90;;;;;;;;;;4987795;28;20046;-83
2021/06/19 06:01:16;;;;;;;15.77;11.20;;;;;;;;;;4991294;28;20066;-85
2021/06/19 06:03:43;;;;;;;13.43;10.15;;;;;;;;;;4987757;28;20058;-82
2021/06/19 06:06:10;;;;;;;15.07;9.48;;;;;;;;;;4974595;28;20061;-83
2021/06/19 06:08:37;;;;;;;12.18;9.30;;;;;;;;;;4991577;28;20077;-84
2021/06/19 06:11:04;;;;;;;15.25;9.88;;;;;;;;;;4985532;28;20054;-83
2021/06/19 06:13:30;;;;;;;11.18;9.13;;;;;;;;;;4988422;28;20046;-82
2021/06/19 06:15:58;;;;;;;14.45;8.52;;;;;;;;;;4988921;28;20069;-83
2021/06/19 06:18:25;;;;;;;17.65;9.75;;;;;;;;;;4975232;28;20054;-83
2021/06/19 06:20:52;;;;;;;11.20;8.90;;;;;;;;;;4988273;28;20058;-83
2021/06/19 06:23:23;;;;;;;12.82;8.75;;;;;;;;;;4988131;28;20043;-85
2021/06/19 06:25:53;;;;;;;11.23;8.05;;;;;;;;;;4988480;28;20086;-83
2021/06/19 06:28:21;;;;;;;18.40;8.85;;;;;;;;;;4988863;28;20057;-83
2021/06/19 06:30:49;;;;;;;8.98;7.43;;;;;;;;;;4991211;28;20054;-83
2021/06/19 06:33:19;;;;;;;11.23;8.05;;;;;;;;;;4990203;28;20054;-82
2021/06/19 06:35:46;;;;;;;12.85;8.02;;;;;;;;;;4985636;28;20050;-84
2021/06/19 06:38:12;;;;;;;10.70;8.68;;;;;;;;;;4993144;28;20039;-83
2021/06/19 06:40:40;;;;;;;15.93;8.63;;;;;;;;;;4963210;28;20054;-85
2021/06/19 06:43:06;;;;;;;12.88;8.38;;;;;;;;;;4991902;28;20406;-83
2021/06/19 06:45:33;;;;;;;10.25;8.02;;;;;;;;;;4984223;28;20051;-82
2021/06/19 06:47:59;;;;;;;10.20;8.00;;;;;;;;;;4991601;28;20053;-82
2021/06/19 06:50:27;;;;;;;15.18;8.40;;;;;;;;;;4989746;28;20038;-83
2021/06/19 06:52:54;;;;;;;14.93;8.93;;;;;;;;;;4969394;28;20054;-82
2021/06/19 06:55:20;;;;;;;11.27;8.30;;;;;;;;;;4985989;28;20042;-81
2021/06/19 06:57:47;;;;;;;12.70;8.23;;;;;;;;;;4986564;28;20050;-82
2021/06/19 07:00:14;;;;;;;9.90;8.30;;;;;;;;;;4992596;28;20483;-82
2021/06/19 07:02:41;;;;;;;15.07;7.82;;;;;;;;;;4983492;28;20078;-81
2021/06/19 07:05:09;;;;;;;9.85;6.85;;;;;;;;;;4984476;28;20046;-83
2021/06/19 07:07:37;;;;;;;10.30;7.78;;;;;;;;;;4988300;28;20493;-81
2021/06/19 07:10:05;;;;;;;9.93;7.15;;;;;;;;;;4981435;28;20050;-82
2021/06/19 07:12:32;;;;;;;12.80;7.57;;;;;;;;;;4990003;28;20050;-82
2021/06/19 07:14:58;;;;;;;9.77;7.03;;;;;;;;;;4991510;28;20050;-81
2021/06/19 07:17:25;;;;;;;8.57;6.50;;;;;;;;;;4993875;28;20053;-81
2021/06/19 07:19:52;;;;;;;11.27;7.00;;;;;;;;;;4990075;28;20191;-82
2021/06/19 07:22:19;;;;;;;15.27;6.72;;;;;;;;;;4996493;28;20111;-82
2021/06/19 07:24:48;;;;;;;9.05;6.50;;;;;;;;;;4988653;28;20109;-84
2021/06/19 07:27:15;;;;;;;10.18;6.30;;;;;;;;;;4995797;28;20061;-82
2021/06/19 07:29:41;;;;;;;9.40;6.57;;;;;;;;;;4990352;28;20143;-85
2021/06/19 07:32:08;;;;;;;12.00;6.50;;;;;;;;;;4995825;28;20096;-81
2021/06/19 07:34:35;;;;;;;11.13;6.20;;;;;;;;;;4984458;28;20046;-80
2021/06/19 07:37:01;;;;;;;10.93;6.45;;;;;;;;;;4990230;28;20046;-81
2021/06/19 07:39:28;;;;;;;8.70;5.72;;;;;;;;;;4983839;28;20517;-81
2021/06/19 07:41:57;;;;;;;10.38;6.70;;;;;;;;;;4994272;28;20047;-81
2021/06/19 07:44:24;;;;;;;10.07;6.20;;;;;;;;;;4993377;28;20057;-81
2021/06/19 07:46:51;;;;;;;14.07;6.28;;;;;;;;;;4991060;28;20047;-80
2021/06/19 07:49:19;;;;;;;9.52;5.63;;;;;;;;;;4989743;28;20039;-81
2021/06/19 07:51:45;;;;;;;11.98;5.38;;;;;;;;;;4990796;28;20046;-82
2021/06/19 07:54:12;;;;;;;8.77;5.25;;;;;;;;;;4989356;28;20043;-80
2021/06/19 07:56:39;;;;;;;10.43;5.50;;;;;;;;;;4989601;28;20050;-80
2021/06/19 07:59:06;;;;;;;26.20;7.60;;;;;;;;;;4994565;28;20050;-80
2021/06/19 08:01:33;;;;;;;9.85;6.82;;;;;;;;;;4992770;28;20055;-82
2021/06/19 08:03:59;;;;;;;8.70;5.18;;;;;;;;;;4988273;28;20051;-81
2021/06/19 08:06:26;;;;;;;11.70;5.55;;;;;;;;;;4991410;28;20058;-81
2021/06/19 08:08:54;;;;;;;16.20;5.50;;;;;;;;;;4988701;28;20079;-81
2021/06/19 08:11:21;;;;;;;11.18;5.07;;;;;;;;;;4989708;28;20109;-81
2021/06/19 08:13:48;;;;;;;11.98;5.35;;;;;;;;;;4981820;28;20050;-82
2021/06/19 08:16:17;;;;;;;7.70;4.68;;;;;;;;;;4994515;28;20038;-83
2021/06/19 08:18:44;;;;;;;10.27;5.50;;;;;;;;;;4982740;28;20051;-82
2021/06/19 08:21:10;;;;;;;10.35;5.47;;;;;;;;;;4984678;28;20038;-81
2021/06/19 08:23:37;;;;;;;11.77;5.47;;;;;;;;;;4988937;28;20047;-82
2021/06/19 08:26:04;;;;;;;9.57;4.97;;;;;;;;;;4989656;28;20050;-84
2021/06/19 08:28:33;;;;;;;14.75;4.93;;;;;;;;;;4988867;28;20049;-80
2021/06/19 08:31:00;;;;;;;12.20;5.18;;;;;;;;;;4992880;28;20043;-83
2021/06/19 08:33:28;;;;;;;11.38;5.10;;;;;;;;;;4988335;28;20051;-81
2021/06/19 08:35:54;;;;;;;11.10;5.43;;;;;;;;;;4986841;28;20557;-81
2021/06/19 08:38:22;;;;;;;9.38;5.10;;;;;;;;;;4991608;28;20042;-83
2021/06/19 08:40:49;;;;;;;9.88;5.10;;;;;;;;;;4994356;28;20472;-81
2021/06/19 08:43:16;;;;;;;7.80;5.43;;;;;;;;;;4987939;28;20038;-81
2021/06/19 08:45:44;;;;;;;11.50;5.80;;;;;;;;;;4992112;28;20051;-84
2021/06/19 08:48:11;;;;;;;8.80;5.00;;;;;;;;;;4992487;28;20034;-82
2021/06/19 08:50:40;;;;;;;8.15;5.38;;;;;;;;;;4987457;28;20070;-82
2021/06/19 08:53:06;;;;;;;9.35;6.10;;;;;;;;;;4992168;28;20863;-83
2021/06/19 08:55:33;;;;;;;7.60;4.80;;;;;;;;;;4989949;28;20062;-81
2021/06/19 08:58:00;;;;;;;10.10;5.63;;;;;;;;;;4992816;28;20054;-82
2021/06/19 09:00:26;;;;;;;11.40;5.10;;;;;;;;;;4992802;28;22819;-83
2021/06/19 09:02:53;;;;;;;11.55;5.70;;;;;;;;;;4990899;28;20047;-82
2021/06/19 09:05:26;;;;;;;9.68;5.47;;;;;;;;;;4988353;28;20050;-82
2021/06/19 09:07:55;;;;;;;7.18;4.80;;;;;;;;;;4992959;28;20077;-84
2021/06/19 09:10:27;;;;;;;13.30;6.80;;;;;;;;;;4991092;28;20054;-82
2021/06/19 09:12:59;;;;;;;7.82;5.07;;;;;;;;;;4996868;28;20419;-82
2021/06/19 09:15:26;;;;;;;14.98;6.95;;;;;;;;;;4992541;28;20057;-82
2021/06/19 09:18:14;;;;;;;11.48;5.82;;;;;;;;;;4991346;28;20057;-82
2021/06/19 09:20:47;;;;;;;9.82;5.30;;;;;;;;;;4995657;28;20047;-82
2021/06/19 09:23:16;;;;;;;8.40;5.60;;;;;;;;;;4993122;28;20483;-83
2021/06/19 09:25:42;;;;;;;10.45;5.78;;;;;;;;;;4994313;28;20046;-84
2021/06/19 09:28:10;;;;;;;11.00;5.10;;;;;;;;;;4989558;28;20050;-82
2021/06/19 09:30:38;;;;;;;10.98;5.70;;;;;;;;;;4999105;28;20050;-83
2021/06/19 09:33:06;;;;;;;13.50;5.57;;;;;;;;;;4987388;28;20039;-84
2021/06/19 09:35:34;;;;;;;10.10;5.32;;;;;;;;;;4994515;28;20519;-84
2021/06/19 09:38:03;;;;;;;11.07;5.40;;;;;;;;;;4992664;28;20058;-83
2021/06/19 09:40:33;;;;;;;11.27;5.88;;;;;;;;;;4994536;28;20042;-86
2021/06/19 09:43:12;;;;;;;9.23;5.10;;;;;;;;;;4997263;28;20383;-84
2021/06/19 09:45:40;;;;;;;10.93;5.55;;;;;;;;;;4995384;28;20047;-85
2021/06/19 09:48:22;;;;;;;12.05;5.72;;;;;;;;;;4996372;28;20111;-85
2021/06/19 09:51:09;;;;;;;10.65;5.57;;;;;;;;;;4995708;28;20105;-85
2021/06/19 09:53:36;;;;;;;18.15;6.00;;;;;;;;;;4996199;28;20133;-84
2021/06/19 09:56:06;;;;;;;10.35;4.97;;;;;;;;;;4997248;28;20054;-83
2021/06/19 09:58:40;;;;;;;8.43;4.80;;;;;;;;;;4999717;28;20042;-84
2021/06/19 10:01:07;;;;;;;11.57;5.65;;;;;;;;;;4988007;28;20050;-85
2021/06/19 10:03:55;;;;;;;8.93;5.18;;;;;;;;;;4995946;28;20043;-82
2021/06/19 10:06:21;;;;;;;10.13;4.93;;;;;;;;;;4991966;28;20042;-83
2021/06/19 10:08:49;;;;;;;8.10;5.18;;;;;;;;;;5001918;28;20066;-84
2021/06/19 10:11:18;;;;;;;10.98;5.43;;;;;;;;;;4997209;28;20057;-81
2021/06/19 10:13:45;;;;;;;11.32;4.82;;;;;;;;;;4993431;28;20042;-83
2021/06/19 10:16:12;;;;;;;9.48;4.93;;;;;;;;;;4995461;28;20046;-83
2021/06/19 10:18:43;;;;;;;8.98;5.40;;;;;;;;;;4998282;28;20138;-83
2021/06/19 10:21:10;;;;;;;11.88;4.85;;;;;;;;;;4992961;28;20497;-82
2021/06/19 10:23:39;;;;;;;13.75;5.32;;;;;;;;;;4994008;28;20051;-83
2021/06/19 10:26:06;;;;;;;10.23;4.90;;;;;;;;;;4993867;28;20050;-83
2021/06/19 10:28:37;;;;;;;13.30;5.30;;;;;;;;;;4997407;28;20054;-82
2021/06/19 10:31:04;;;;;;;10.07;4.72;;;;;;;;;;4989929;28;20533;-83
2021/06/19 10:33:32;;;;;;;14.55;5.50;;;;;;;;;;4991682;28;20054;-83
2021/06/19 10:36:01;;;;;;;9.45;5.30;;;;;;;;;;4994730;28;20127;-84
2021/06/19 10:38:33;;;;;;;8.80;4.95;;;;;;;;;;4992050;28;20044;-83
2021/06/19 10:41:01;;;;;;;7.78;4.60;;;;;;;;;;4991228;28;20043;-84
2021/06/19 10:43:29;;;;;;;13.20;5.07;;;;;;;;;;4988121;28;20053;-84
2021/06/19 10:46:02;;;;;;;8.18;5.38;;;;;;;;;;4997426;28;20102;-84
2021/06/19 10:48:33;;;;;;;11.33;4.90;;;;;;;;;;4992357;28;20046;-84
2021/06/19 10:51:18;;;;;;;11.38;4.57;;;;;;;;;;4999525;28;20661;-84
2021/06/19 10:54:09;;;;;;;8.18;4.50;;;;;;;;;;4995877;28;20053;-85
2021/06/19 10:56:51;;;;;;;8.73;4.82;;;;;;;;;;4993116;28;20065;-82
2021/06/19 10:59:22;;;;;;;10.18;5.28;;;;;;;;;;4990951;28;20034;-84
2021/06/19 11:01:51;;;;;;;10.00;5.20;;;;;;;;;;4988739;28;20535;-84
2021/06/19 11:04:43;;;;;;;7.68;4.82;;;;;;;;;;4988472;28;20056;-83
2021/06/19 11:07:10;;;;;;;8.65;5.45;;;;;;;;;;4987719;28;20058;-83
2021/06/19 11:09:39;;;;;;;8.65;4.75;;;;;;;;;;4989032;28;20054;-82
2021/06/19 11:12:08;;;;;;;11.70;5.00;;;;;;;;;;4991573;28;20046;-85
2021/06/19 11:14:54;;;;;;;13.80;5.00;;;;;;;;;;4985996;28;20046;-82
2021/06/19 11:17:43;;;;;;;11.95;4.50;;;;;;;;;;4977076;28;60259;-82
2021/06/19 11:20:30;;;;;;;11.95;5.53;;;;;;;;;;4985738;28;20050;-83
2021/06/19 11:23:07;;;;;;;13.20;5.30;;;;;;;;;;4989653;28;20070;-83
2021/06/19 11:25:40;;;;;;;11.27;6.28;;;;;;;;;;4988811;28;20097;-83
2021/06/19 11:28:09;;;;;;;11.40;5.15;;;;;;;;;;4987620;28;20050;-84
2021/06/19 11:30:50;;;;;;;13.82;5.55;;;;;;;;;;4993063;28;20052;-81
2021/06/19 11:33:52;;;;;;;14.25;4.90;;;;;;;;;;4987082;28;20046;-83
2021/06/19 11:36:26;;;;;;;7.63;5.20;;;;;;;;;;4987214;28;20049;-82
2021/06/19 11:38:55;;;;;;;12.05;5.18;;;;;;;;;;4984288;28;20491;-82
2021/06/19 11:41:23;;;;;;;10.50;5.20;;;;;;;;;;4986144;28;20085;-84
2021/06/19 11:43:51;;;;;;;10.50;4.68;;;;;;;;;;4988530;28;20057;-83
2021/06/19 11:46:19;;;;;;;9.13;5.18;;;;;;;;;;4988231;28;20043;-82
2021/06/19 11:48:51;;;;;;;9.50;5.03;;;;;;;;;;4988814;28;20455;-82
2021/06/19 11:51:20;;;;;;;12.70;6.07;;;;;;;;;;4989406;28;20101;-83
2021/06/19 11:53:47;;;;;;;8.88;5.30;;;;;;;;;;4984631;28;20066;-83
2021/06/19 11:56:15;;;;;;;7.70;5.20;;;;;;;;;;4989054;28;20050;-82
2021/06/19 11:58:43;;;;;;;12.43;5.07;;;;;;;;;;4986993;28;20522;-81
2021/06/19 12:01:10;;;;;;;9.82;4.55;;;;;;;;;;4988899;28;20055;-82
2021/06/19 12:03:36;;;;;;;11.52;5.47;;;;;;;;;;4988896;28;20047;-82
2021/06/19 12:06:04;;;;;;;15.80;5.35;;;;;;;;;;4990621;28;20049;-82
2021/06/19 12:08:31;;;;;;;11.73;5.00;;;;;;;;;;4984986;28;20062;-83
2021/06/19 12:10:58;;;;;;;8.30;4.90;;;;;;;;;;4984450;28;20546;-84
2021/06/19 12:13:30;;;;;;;11.65;4.68;;;;;;;;;;4991464;28;20050;-82
2021/06/19 12:15:57;;;;;;;8.43;5.15;;;;;;;;;;4989597;28;20157;-82
2021/06/19 12:18:23;;;;;;;14.65;5.32;;;;;;;;;;4989584;28;20054;-82
2021/06/19 12:21:00;;;;;;;12.27;5.18;;;;;;;;;;4989496;28;20049;-83
2021/06/19 12:23:35;;;;;;;11.98;5.10;;;;;;;;;;4989833;28;20050;-83
2021/06/19 12:26:05;;;;;;;11.38;5.25;;;;;;;;;;4989941;28;20049;-85
2021/06/19 12:28:32;;;;;;;8.32;5.10;;;;;;;;;;4989857;28;20046;-84
2021/06/19 12:31:00;;;;;;;11.10;4.70;;;;;;;;;;4988903;28;20505;-81
2021/06/19 12:33:26;;;;;;;15.10;5.85;;;;;;;;;;4989526;28;20070;-82
2021/06/19 12:35:53;;;;;;;8.80;5.00;;;;;;;;;;4990965;28;20046;-84
2021/06/19 12:38:21;;;;;;;11.82;5.35;;;;;;;;;;4988004;28;20054;-83
2021/06/19 12:40:49;;;;;;;10.75;5.45;;;;;;;;;;4995062;28;20097;-84
2021/06/19 12:43:16;;;;;;;10.05;5.22;;;;;;;;;;4995236;28;20152;-84
2021/06/19 12:45:44;;;;;;;9.07;5.22;;;;;;;;;;4992822;28;20055;-84
2021/06/19 12:48:22;;;;;;;10.70;5.35;;;;;;;;;;4993389;28;20045;-83
2021/06/19 12:50:49;;;;;;;9.15;5.47;;;;;;;;;;4995947;28;20125;-83
2021/06/19 12:53:16;;;;;;;9.07;4.93;;;;;;;;;;4991708;28;20434;-84
2021/06/19 12:55:46;;;;;;;11.68;4.93;;;;;;;;;;4994970;28;20411;-84
2021/06/19 12:58:15;;;;;;;8.93;5.00;;;;;;;;;;4990696;28;20046;-84
2021/06/19 13:00:44;;;;;;;9.02;5.00;;;;;;;;;;4987124;28;20051;-84
2021/06/19 13:03:12;;;;;;;9.18;5.60;;;;;;;;;;4991348;28;20042;-84
2021/06/19 13:05:58;;;;;;;7.97;5.32;;;;;;;;;;4990952;28;20050;-83
2021/06/19 13:08:27;;;;;;;10.73;5.20;;;;;;;;;;4992707;28;20680;-85
2021/06/19 13:10:54;;;;;;;10.48;5.53;;;;;;;;;;4987163;28;20570;-82
2021/06/19 13:13:39;;;;;;;8.85;4.80;;;;;;;;;;4982840;28;20050;-83
2021/06/19 13:16:06;;;;;;;10.82;5.38;;;;;;;;;;4991733;28;20050;-82
2021/06/19 13:18:33;;;;;;;9.20;5.15;;;;;;;;;;4990954;28;20061;-85
2021/06/19 13:21:05;;;;;;;8.45;4.78;;;;;;;;;;4991096;28;20052;-83
2021/06/19 13:23:32;;;;;;;8.05;4.95;;;;;;;;;;4989986;28;20133;-83
2021/06/19 13:26:05;;;;;;;8.13;4.15;;;;;;;;;;4988999;28;20495;-83
2021/06/19 13:28:38;;;;;;;7.80;4.43;;;;;;;;;;4990251;28;20054;-83
2021/06/19 13:31:06;;;;;;;9.75;5.20;;;;;;;;;;4997834;28;20483;-82
2021/06/19 13:33:34;;;;;;;5.15;4.65;;;;;;;;;;4988685;28;20487;-82
2021/06/19 13:36:00;;;;;;;8.85;4.90;;;;;;;;;;4990449;28;20065;-82
2021/06/19 13:38:28;;;;;;;9.57;4.97;;;;;;;;;;4990284;28;20065;-84
2021/06/19 13:40:55;;;;;;;8.35;4.28;;;;;;;;;;4997212;28;20525;-83
2021/06/19 13:43:21;;;;;;;8.88;4.63;;;;;;;;;;4998551;28;20046;-83
2021/06/19 13:45:50;;;;;;;9.50;4.97;;;;;;;;;;4980895;28;20082;-83
2021/06/19 13:48:16;;;;;;;8.05;5.05;;;;;;;;;;4996734;28;20125;-82
2021/06/19 13:50:43;;;;;;;6.57;4.68;;;;;;;;;;4995645;28;20042;-84
2021/06/19 13:53:10;;;;;;;11.52;4.70;;;;;;;;;;4980312;28;20411;-83
2021/06/19 13:55:36;;;;;;;7.07;4.10;;;;;;;;;;4994045;28;20502;-82
2021/06/19 13:58:03;;;;;;;10.48;5.10;;;;;;;;;;4947167;28;20086;-84
2021/06/19 14:00:30;;;;;;;10.77;5.07;;;;;;;;;;4961044;28;20065;-83
2021/06/19 14:02:58;;;;;;;12.85;5.78;;;;;;;;;;4990213;28;20108;-83
2021/06/19 14:05:25;;;;;;;12.35;5.47;;;;;;;;;;4999812;28;20046;-82
2021/06/19 14:07:52;;;;;;;9.10;5.05;;;;;;;;;;4999609;28;20082;-82
2021/06/19 14:10:19;;;;;;;7.25;5.20;;;;;;;;;;4999028;28;20410;-81
2021/06/19 14:12:46;;;;;;;7.85;4.60;;;;;;;;;;4997540;28;20550;-82
2021/06/19 14:15:14;;;;;;;10.38;4.85;;;;;;;;;;4997789;28;20054;-83
2021/06/19 14:17:44;;;;;;;9.13;4.65;;;;;;;;;;4998906;28;20137;-85
2021/06/19 14:20:14;;;;;;;36.97;6.82;;;;;;;;;;4997096;28;20062;-85
2021/06/19 14:22:41;;;;;;;8.63;5.63;;;;;;;;;;4998362;28;20053;-84
2021/06/19 14:25:09;;;;;;;9.27;5.25;;;;;;;;;;4998394;28;20046;-85
2021/06/19 14:27:38;;;;;;;8.77;5.65;;;;;;;;;;4995026;28;20050;-83
2021/06/19 14:30:06;;;;;;;11.98;6.03;;;;;;;;;;4996101;28;20121;-84
2021/06/19 14:32:35;;;;;;;8.20;5.22;;;;;;;;;;4996867;28;20050;-84
2021/06/19 14:35:03;;;;;;;10.25;5.60;;;;;;;;;;4998012;28;20129;-85
2021/06/19 14:37:31;;;;;;;11.07;5.40;;;;;;;;;;4992984;28;20046;-82
2021/06/19 14:40:00;;;;;;;5.97;5.15;;;;;;;;;;4977996;28;20053;-84
2021/06/19 14:42:27;;;;;;;8.77;4.93;;;;;;;;;;4981378;28;20042;-83
2021/06/19 14:44:55;;;;;;;10.32;5.22;;;;;;;;;;4984848;28;20059;-82